Time,TemperatureF,DewpointF,PressureIn,WindDirection,WindDirectionDegrees,WindSpeedMPH,WindSpeedGustMPH,Humidity,HourlyPrecipIn,Conditions,Clouds,dailyrainin,SolarRadiationWatts/m^2,SoftwareType,DateUTC
2013-04-10 00:00:00,53.2,28.9,29.84,West,277,0.0,0.0,39,0.00,,,0.00,0,WeatherTracker,2013-04-10 07:00:00,
2013-04-10 00:10:00,53.4,29.7,29.84,West,277,0.0,0.0,40,0.00,,,0.00,0,WeatherTracker,2013-04-10 07:10:00,
2013-04-10 00:15:00,53.5,31.6,29.84,West,277,0.0,0.0,43,0.00,,,0.00,0,WeatherTracker,2013-04-10 07:15:00,
2013-04-10 00:25:00,53.3,30.2,29.84,West,277,0.0,0.0,41,0.00,,,0.00,0,WeatherTracker,2013-04-10 07:25:00,
2013-04-10 00:30:00,53.2,30.1,29.84,West,277,0.0,0.0,41,0.00,,,0.00,0,WeatherTracker,2013-04-10 07:30:00,
2013-04-10 00:40:00,53.0,29.9,29.83,West,277,1.0,0.0,41,0.00,,,0.00,0,WeatherTracker,2013-04-10 07:40:00,
2013-04-10 00:50:00,52.9,29.2,29.84,West,277,0.0,0.0,40,0.00,,,0.00,0,WeatherTracker,2013-04-10 07:50:00,
2013-04-10 00:55:00,52.9,28.6,29.84,WSW,254,0.0,0.0,39,0.00,,,0.00,0,WeatherTracker,2013-04-10 07:55:00,
2013-04-10 01:00:00,53.0,28.7,29.84,WSW,248,0.0,0.0,39,0.00,,,0.00,0,WeatherTracker,2013-04-10 08:00:00,
2013-04-10 01:05:00,53.0,29.9,29.84,SSE,152,2.0,0.0,41,0.00,,,0.00,0,WeatherTracker,2013-04-10 08:05:00,
2013-04-10 01:15:00,52.8,30.3,29.84,SE,142,0.0,0.0,42,0.00,,,0.00,0,WeatherTracker,2013-04-10 08:15:00,
2013-04-10 01:25:00,52.2,30.4,29.84,SE,142,0.0,0.0,43,0.00,,,0.00,0,WeatherTracker,2013-04-10 08:25:00,
2013-04-10 01:35:00,51.6,30.4,29.84,SE,142,0.0,0.0,44,0.00,,,0.00,0,WeatherTracker,2013-04-10 08:35:00,
2013-04-10 01:40:00,51.2,30.0,29.84,SE,142,0.0,0.0,44,0.00,,,0.00,0,WeatherTracker,2013-04-10 08:40:00,
2013-04-10 01:50:00,50.6,31.1,29.84,SE,142,0.0,0.0,47,0.00,,,0.00,0,WeatherTracker,2013-04-10 08:50:00,
2013-04-10 01:55:00,50.3,31.4,29.84,SSE,156,0.0,0.0,48,0.00,,,0.00,0,WeatherTracker,2013-04-10 08:55:00,
2013-04-10 02:00:00,50.1,30.7,29.84,SSE,156,0.0,0.0,47,0.00,,,0.00,0,WeatherTracker,2013-04-10 09:00:00,
2013-04-10 02:10:00,49.8,29.9,29.84,SSE,151,0.0,0.0,46,0.00,,,0.00,0,WeatherTracker,2013-04-10 09:10:00,
2013-04-10 02:15:00,49.7,30.8,29.84,SSE,151,0.0,0.0,48,0.00,,,0.00,0,WeatherTracker,2013-04-10 09:15:00,
2013-04-10 02:20:00,49.7,31.3,29.84,SSE,151,0.0,0.0,49,0.00,,,0.00,0,WeatherTracker,2013-04-10 09:20:00,
2013-04-10 02:25:00,49.6,31.7,29.84,SSE,151,0.0,0.0,50,0.00,,,0.00,0,WeatherTracker,2013-04-10 09:25:00,
2013-04-10 02:30:00,49.4,31.0,29.84,SSE,151,0.0,0.0,49,0.00,,,0.00,0,WeatherTracker,2013-04-10 09:30:00,
2013-04-10 02:35:00,49.2,30.9,29.84,SSE,150,1.0,0.0,49,0.00,,,0.00,0,WeatherTracker,2013-04-10 09:35:00,
2013-04-10 02:45:00,48.7,30.4,29.84,SE,131,0.0,0.0,49,0.00,,,0.00,0,WeatherTracker,2013-04-10 09:45:00,
2013-04-10 02:55:00,48.4,30.6,29.84,SE,131,0.0,0.0,50,0.00,,,0.00,0,WeatherTracker,2013-04-10 09:55:00,
2013-04-10 03:05:00,48.0,31.2,29.84,SE,131,0.0,0.0,52,0.00,,,0.00,0,WeatherTracker,2013-04-10 10:05:00,
2013-04-10 03:15:00,47.7,31.4,29.84,SE,131,0.0,0.0,53,0.00,,,0.00,0,WeatherTracker,2013-04-10 10:15:00,
2013-04-10 03:20:00,47.6,31.3,29.84,SE,131,0.0,0.0,53,0.00,,,0.00,0,WeatherTracker,2013-04-10 10:20:00,
2013-04-10 03:30:00,47.2,31.4,29.84,SE,131,0.0,0.0,54,0.00,,,0.00,0,WeatherTracker,2013-04-10 10:30:00,
2013-04-10 03:35:00,46.9,32.0,29.84,SE,131,0.0,0.0,56,0.00,,,0.00,0,WeatherTracker,2013-04-10 10:35:00,
2013-04-10 03:40:00,46.6,33.0,29.84,SE,131,0.0,0.0,59,0.00,,,0.00,0,WeatherTracker,2013-04-10 10:40:00,
2013-04-10 03:45:00,46.3,32.8,29.84,SE,131,0.0,0.0,59,0.00,,,0.00,0,WeatherTracker,2013-04-10 10:45:00,
2013-04-10 03:55:00,45.6,32.5,29.84,SE,131,0.0,0.0,60,0.00,,,0.00,0,WeatherTracker,2013-04-10 10:55:00,
2013-04-10 04:05:00,45.2,32.6,29.85,SE,131,0.0,0.0,61,0.00,,,0.00,0,WeatherTracker,2013-04-10 11:05:00,
2013-04-10 04:10:00,45.0,32.8,29.85,SE,131,0.0,0.0,62,0.00,,,0.00,0,WeatherTracker,2013-04-10 11:10:00,
2013-04-10 04:15:00,44.7,32.9,29.85,SE,131,0.0,0.0,63,0.00,,,0.00,0,WeatherTracker,2013-04-10 11:15:00,
2013-04-10 04:25:00,44.3,31.7,29.85,SE,131,0.0,0.0,61,0.00,,,0.00,0,WeatherTracker,2013-04-10 11:25:00,
2013-04-10 04:35:00,44.2,33.2,29.86,SE,131,0.0,0.0,65,0.00,,,0.00,0,WeatherTracker,2013-04-10 11:35:00,
2013-04-10 04:40:00,44.1,32.7,29.86,SE,131,0.0,0.0,64,0.00,,,0.00,0,WeatherTracker,2013-04-10 11:40:00,
2013-04-10 04:45:00,43.9,32.9,29.86,SE,131,0.0,0.0,65,0.00,,,0.00,0,WeatherTracker,2013-04-10 11:45:00,
2013-04-10 04:55:00,43.6,32.6,29.87,SE,131,0.0,0.0,65,0.00,,,0.00,0,WeatherTracker,2013-04-10 11:55:00,
2013-04-10 05:00:00,43.6,32.6,29.87,SE,131,0.0,0.0,65,0.00,,,0.00,0,WeatherTracker,2013-04-10 12:00:00,
2013-04-10 05:05:00,43.6,33.0,29.87,SE,131,0.0,0.0,66,0.00,,,0.00,0,WeatherTracker,2013-04-10 12:05:00,
2013-04-10 05:15:00,43.5,33.7,29.88,SE,131,0.0,0.0,68,0.00,,,0.00,0,WeatherTracker,2013-04-10 12:15:00,
2013-04-10 05:25:00,43.2,33.4,29.88,SE,131,0.0,0.0,68,0.00,,,0.00,0,WeatherTracker,2013-04-10 12:25:00,
2013-04-10 05:35:00,42.9,32.3,29.88,SE,131,0.0,0.0,66,0.00,,,0.00,0,WeatherTracker,2013-04-10 12:35:00,
2013-04-10 05:45:00,42.8,31.9,29.88,SE,131,0.0,0.0,65,0.00,,,0.00,0,WeatherTracker,2013-04-10 12:45:00,
2013-04-10 05:55:00,42.7,32.1,29.88,SE,131,0.0,0.0,66,0.00,,,0.00,0,WeatherTracker,2013-04-10 12:55:00,
2013-04-10 06:05:00,42.6,31.7,29.89,SE,131,0.0,0.0,65,0.00,,,0.00,0,WeatherTracker,2013-04-10 13:05:00,
2013-04-10 06:15:00,42.5,31.2,29.89,SE,131,0.0,0.0,64,0.00,,,0.00,9,WeatherTracker,2013-04-10 13:15:00,
2013-04-10 06:25:00,42.6,31.7,29.89,SE,131,0.0,0.0,65,0.00,,,0.00,14,WeatherTracker,2013-04-10 13:25:00,
2013-04-10 06:30:00,42.7,31.8,29.90,SE,131,0.0,0.0,65,0.00,,,0.00,19,WeatherTracker,2013-04-10 13:30:00,
2013-04-10 06:35:00,42.8,32.6,29.90,SE,131,0.0,0.0,67,0.00,,,0.00,26,WeatherTracker,2013-04-10 13:35:00,
2013-04-10 06:40:00,42.9,33.4,29.90,SE,131,0.0,0.0,69,0.00,,,0.00,30,WeatherTracker,2013-04-10 13:40:00,
2013-04-10 06:45:00,43.0,33.9,29.90,SE,131,0.0,0.0,70,0.00,,,0.00,32,WeatherTracker,2013-04-10 13:45:00,
2013-04-10 06:50:00,43.2,33.7,29.91,SE,131,0.0,0.0,69,0.00,,,0.00,44,WeatherTracker,2013-04-10 13:50:00,
2013-04-10 06:55:00,43.4,33.6,29.91,SE,131,0.0,0.0,68,0.00,,,0.00,79,WeatherTracker,2013-04-10 13:55:00,
2013-04-10 07:00:00,43.7,33.1,29.90,SE,131,0.0,0.0,66,0.00,,,0.00,39,WeatherTracker,2013-04-10 14:00:00,
2013-04-10 07:10:00,44.7,32.9,29.91,SE,131,0.0,0.0,63,0.00,,,0.00,137,WeatherTracker,2013-04-10 14:10:00,
2013-04-10 07:20:00,46.3,31.5,29.91,SE,131,0.0,0.0,56,0.00,,,0.00,223,WeatherTracker,2013-04-10 14:20:00,
2013-04-10 07:25:00,47.1,31.8,29.92,SE,131,0.0,0.0,55,0.00,,,0.00,276,WeatherTracker,2013-04-10 14:25:00,
2013-04-10 07:30:00,48.3,31.5,29.92,SE,131,0.0,0.0,52,0.00,,,0.00,295,WeatherTracker,2013-04-10 14:30:00,
2013-04-10 07:40:00,50.3,31.4,29.91,SE,131,0.0,0.0,48,0.00,,,0.00,230,WeatherTracker,2013-04-10 14:40:00,
2013-04-10 07:45:00,51.1,31.6,29.91,SE,131,0.0,0.0,47,0.00,,,0.00,288,WeatherTracker,2013-04-10 14:45:00,
2013-04-10 07:50:00,51.8,30.0,29.91,SE,131,0.0,0.0,43,0.00,,,0.00,325,WeatherTracker,2013-04-10 14:50:00,
2013-04-10 08:00:00,53.2,30.7,29.92,SE,131,0.0,0.0,42,0.00,,,0.00,338,WeatherTracker,2013-04-10 15:00:00,
2013-04-10 08:10:00,54.5,31.3,29.92,SE,131,0.0,0.0,41,0.00,,,0.00,446,WeatherTracker,2013-04-10 15:10:00,
2013-04-10 08:15:00,55.0,29.9,29.92,SE,140,2.0,0.0,38,0.00,,,0.00,434,WeatherTracker,2013-04-10 15:15:00,
2013-04-10 08:25:00,56.0,30.1,29.92,South,186,1.0,0.0,37,0.00,,,0.00,503,WeatherTracker,2013-04-10 15:25:00,
2013-04-10 08:35:00,56.6,30.0,29.92,South,174,0.0,0.0,36,0.00,,,0.00,394,WeatherTracker,2013-04-10 15:35:00,
2013-04-10 08:45:00,57.2,29.8,29.93,South,173,2.0,0.0,35,0.00,,,0.00,550,WeatherTracker,2013-04-10 15:45:00,
2013-04-10 08:50:00,57.6,29.4,29.93,South,174,0.0,0.0,34,0.00,,,0.00,490,WeatherTracker,2013-04-10 15:50:00,
2013-04-10 08:55:00,58.0,30.5,29.93,South,189,0.0,0.0,35,0.00,,,0.00,582,WeatherTracker,2013-04-10 15:55:00,
2013-04-10 09:05:00,58.5,28.7,29.93,South,182,0.0,0.0,32,0.00,,,0.00,545,WeatherTracker,2013-04-10 16:05:00,
2013-04-10 09:10:00,58.8,29.8,29.93,South,182,0.0,0.0,33,0.00,,,0.00,568,WeatherTracker,2013-04-10 16:10:00,
2013-04-10 09:15:00,59.1,30.0,29.93,South,182,0.0,0.0,33,0.00,,,0.00,636,WeatherTracker,2013-04-10 16:15:00,
2013-04-10 09:25:00,59.9,28.4,29.93,South,171,0.0,0.0,30,0.00,,,0.00,79,WeatherTracker,2013-04-10 16:25:00,
2013-04-10 09:35:00,60.7,28.3,29.93,SSW,201,0.0,0.0,29,0.00,,,0.00,624,WeatherTracker,2013-04-10 16:35:00,
2013-04-10 09:40:00,61.0,28.5,29.93,South,178,0.0,0.0,29,0.00,,,0.00,613,WeatherTracker,2013-04-10 16:40:00,
2013-04-10 09:50:00,61.7,29.1,29.94,SSE,161,0.0,0.0,29,0.00,,,0.00,671,WeatherTracker,2013-04-10 16:50:00,
2013-04-10 09:55:00,62.1,28.6,29.94,SSW,199,4.0,0.0,28,0.00,,,0.00,777,WeatherTracker,2013-04-10 16:55:00,
2013-04-10 10:00:00,62.4,28.0,29.94,SW,221,0.0,0.0,27,0.00,,,0.00,573,WeatherTracker,2013-04-10 17:00:00,
2013-04-10 10:05:00,62.6,29.0,29.93,SSW,208,0.0,0.0,28,0.00,,,0.00,603,WeatherTracker,2013-04-10 17:05:00,
2013-04-10 10:10:00,62.9,28.4,29.94,West,259,2.0,0.0,27,0.00,,,0.00,613,WeatherTracker,2013-04-10 17:10:00,
2013-04-10 10:20:00,63.2,29.6,29.94,WSW,255,0.0,0.0,28,0.00,,,0.00,816,WeatherTracker,2013-04-10 17:20:00,
2013-04-10 10:30:00,63.8,29.2,29.93,SSW,196,5.0,0.0,27,0.00,,,0.00,93,WeatherTracker,2013-04-10 17:30:00,
2013-04-10 10:40:00,63.9,30.2,29.94,West,269,3.0,0.0,28,0.00,,,0.00,712,WeatherTracker,2013-04-10 17:40:00,
2013-04-10 10:50:00,64.5,28.9,29.93,SW,227,1.0,0.0,26,0.00,,,0.00,896,WeatherTracker,2013-04-10 17:50:00,
2013-04-10 10:55:00,64.8,29.1,29.93,SSW,192,2.0,0.0,26,0.00,,,0.00,900,WeatherTracker,2013-04-10 17:55:00,
2013-04-10 11:00:00,64.6,28.9,29.93,West,269,1.0,0.0,26,0.00,,,0.00,877,WeatherTracker,2013-04-10 18:00:00,
2013-04-10 11:05:00,64.7,29.9,29.93,WSW,244,1.0,0.0,27,0.00,,,0.00,918,WeatherTracker,2013-04-10 18:05:00,
2013-04-10 11:15:00,65.2,28.5,29.93,NW,316,5.0,0.0,25,0.00,,,0.00,928,WeatherTracker,2013-04-10 18:15:00,
2013-04-10 11:20:00,65.7,27.9,29.93,SSW,202,4.0,0.0,24,0.00,,,0.00,940,WeatherTracker,2013-04-10 18:20:00,
2013-04-10 11:25:00,66.0,27.1,29.93,West,275,5.0,0.0,23,0.00,,,0.00,770,WeatherTracker,2013-04-10 18:25:00,
2013-04-10 11:35:00,66.0,26.1,29.93,NW,304,2.0,0.0,22,0.00,,,0.00,949,WeatherTracker,2013-04-10 18:35:00,
2013-04-10 11:40:00,66.1,25.0,29.92,West,261,5.0,0.0,21,0.00,,,0.00,758,WeatherTracker,2013-04-10 18:40:00,
2013-04-10 11:50:00,66.1,29.3,29.92,West,260,2.0,0.0,25,0.00,,,0.00,758,WeatherTracker,2013-04-10 18:50:00,
2013-04-10 12:00:00,66.1,28.3,29.92,WNW,286,1.0,0.0,24,0.00,,,0.00,911,WeatherTracker,2013-04-10 19:00:00,
2013-04-10 12:10:00,66.1,28.3,29.92,SSW,198,1.0,0.0,24,0.00,,,0.00,97,WeatherTracker,2013-04-10 19:10:00,
2013-04-10 12:20:00,66.5,29.6,29.91,SW,222,1.0,0.0,25,0.00,,,0.00,789,WeatherTracker,2013-04-10 19:20:00,
2013-04-10 12:25:00,67.0,29.0,29.91,NNE,17,0.0,0.0,24,0.00,,,0.00,847,WeatherTracker,2013-04-10 19:25:00,
2013-04-10 12:35:00,67.3,29.3,29.91,West,265,1.0,0.0,24,0.00,,,0.00,756,WeatherTracker,2013-04-10 19:35:00,
2013-04-10 12:40:00,67.8,28.7,29.91,West,270,0.0,0.0,23,0.00,,,0.00,744,WeatherTracker,2013-04-10 19:40:00,
2013-04-10 12:50:00,68.1,29.9,29.91,West,276,1.0,0.0,24,0.00,,,0.00,861,WeatherTracker,2013-04-10 19:50:00,
2013-04-10 12:55:00,68.3,28.0,29.90,SSW,200,5.0,0.0,22,0.00,,,0.00,926,WeatherTracker,2013-04-10 19:55:00,
2013-04-10 13:00:00,67.9,28.7,29.90,WSW,242,2.0,0.0,23,0.00,,,0.00,788,WeatherTracker,2013-04-10 20:00:00,
2013-04-10 13:10:00,67.9,28.7,29.90,West,261,1.0,0.0,23,0.00,,,0.00,921,WeatherTracker,2013-04-10 20:10:00,
2013-04-10 13:15:00,67.7,28.6,29.90,South,169,4.0,0.0,23,0.00,,,0.00,744,WeatherTracker,2013-04-10 20:15:00,
2013-04-10 13:25:00,67.6,29.5,29.90,West,280,2.0,0.0,24,0.00,,,0.00,912,WeatherTracker,2013-04-10 20:25:00,
2013-04-10 13:30:00,67.8,28.7,29.89,WNW,289,2.0,0.0,23,0.00,,,0.00,703,WeatherTracker,2013-04-10 20:30:00,
2013-04-10 13:35:00,67.7,29.6,29.89,West,272,0.0,0.0,24,0.00,,,0.00,881,WeatherTracker,2013-04-10 20:35:00,
2013-04-10 13:40:00,67.9,27.7,29.89,West,272,6.0,0.0,22,0.00,,,0.00,788,WeatherTracker,2013-04-10 20:40:00,
2013-04-10 13:45:00,68.2,26.8,29.89,WNW,288,6.0,0.0,21,0.00,,,0.00,700,WeatherTracker,2013-04-10 20:45:00,
2013-04-10 13:50:00,68.4,26.9,29.89,WSW,246,2.0,0.0,21,0.00,,,0.00,870,WeatherTracker,2013-04-10 20:50:00,
2013-04-10 13:55:00,68.4,25.8,29.89,SW,231,2.0,0.0,20,0.00,,,0.00,95,WeatherTracker,2013-04-10 20:55:00,
2013-04-10 14:00:00,68.3,25.7,29.89,WSW,248,2.0,0.0,20,0.00,,,0.00,686,WeatherTracker,2013-04-10 21:00:00,
2013-04-10 14:05:00,68.6,25.9,29.88,SW,225,3.0,0.0,20,0.00,,,0.00,763,WeatherTracker,2013-04-10 21:05:00,
2013-04-10 14:15:00,68.6,24.7,29.88,SW,229,4.0,0.0,19,0.00,,,0.00,673,WeatherTracker,2013-04-10 21:15:00,
2013-04-10 14:20:00,68.6,24.7,29.88,WNW,285,2.0,0.0,19,0.00,,,0.00,664,WeatherTracker,2013-04-10 21:20:00,
2013-04-10 14:30:00,68.8,24.9,29.87,SW,218,4.0,0.0,19,0.00,,,0.00,564,WeatherTracker,2013-04-10 21:30:00,
2013-04-10 14:35:00,68.8,24.9,29.87,SW,229,1.0,0.0,19,0.00,,,0.00,603,WeatherTracker,2013-04-10 21:35:00,
2013-04-10 14:40:00,68.8,24.9,29.87,SW,228,2.0,0.0,19,0.00,,,0.00,731,WeatherTracker,2013-04-10 21:40:00,
2013-04-10 14:50:00,68.5,25.8,29.87,WNW,288,2.0,0.0,20,0.00,,,0.00,292,WeatherTracker,2013-04-10 21:50:00,
2013-04-10 15:00:00,68.5,24.6,29.86,West,261,2.0,0.0,19,0.00,,,0.00,631,WeatherTracker,2013-04-10 22:00:00,
2013-04-10 15:05:00,68.4,25.8,29.86,SSW,200,5.0,0.0,20,0.00,,,0.00,608,WeatherTracker,2013-04-10 22:05:00,
2013-04-10 15:10:00,68.2,25.6,29.86,WSW,252,4.0,0.0,20,0.00,,,0.00,67,WeatherTracker,2013-04-10 22:10:00,
2013-04-10 15:20:00,68.3,25.7,29.86,West,273,2.0,0.0,20,0.00,,,0.00,640,WeatherTracker,2013-04-10 22:20:00,
2013-04-10 15:30:00,68.2,25.6,29.86,WSW,239,3.0,0.0,20,0.00,,,0.00,501,WeatherTracker,2013-04-10 22:30:00,
2013-04-10 15:40:00,68.1,25.5,29.85,SW,217,4.0,0.0,20,0.00,,,0.00,452,WeatherTracker,2013-04-10 22:40:00,
2013-04-10 15:45:00,68.1,25.5,29.86,WNW,282,5.0,0.0,20,0.00,,,0.00,538,WeatherTracker,2013-04-10 22:45:00,
2013-04-10 15:55:00,68.2,25.6,29.85,West,280,4.0,0.0,20,0.00,,,0.00,348,WeatherTracker,2013-04-10 22:55:00,
2013-04-10 16:05:00,68.1,25.5,29.84,WSW,238,1.0,0.0,20,0.00,,,0.00,429,WeatherTracker,2013-04-10 23:05:00,
2013-04-10 16:10:00,68.0,25.4,29.85,WNW,288,7.0,0.0,20,0.00,,,0.00,401,WeatherTracker,2013-04-10 23:10:00,
2013-04-10 16:15:00,67.8,25.3,29.84,WSW,239,5.0,0.0,20,0.00,,,0.00,290,WeatherTracker,2013-04-10 23:15:00,
2013-04-10 16:25:00,67.4,24.9,29.84,West,271,5.0,0.0,20,0.00,,,0.00,418,WeatherTracker,2013-04-10 23:25:00,
2013-04-10 16:35:00,67.2,24.8,29.85,WNW,285,1.0,0.0,20,0.00,,,0.00,330,WeatherTracker,2013-04-10 23:35:00,
2013-04-10 16:40:00,67.0,24.6,29.85,West,281,4.0,0.0,20,0.00,,,0.00,239,WeatherTracker,2013-04-10 23:40:00,
2013-04-10 16:45:00,67.0,24.6,29.84,WSW,258,1.0,0.0,20,0.00,,,0.00,360,WeatherTracker,2013-04-10 23:45:00,
2013-04-10 16:50:00,67.0,24.6,29.84,WNW,292,6.0,0.0,20,0.00,,,0.00,290,WeatherTracker,2013-04-10 23:50:00,
2013-04-10 17:00:00,66.8,24.4,29.85,WSW,253,2.0,0.0,20,0.00,,,0.00,146,WeatherTracker,2013-04-11 00:00:00,
2013-04-10 17:10:00,66.6,25.4,29.85,NW,304,4.0,0.0,21,0.00,,,0.00,37,WeatherTracker,2013-04-11 00:10:00,
2013-04-10 17:15:00,66.4,24.1,29.85,WNW,299,1.0,0.0,20,0.00,,,0.00,33,WeatherTracker,2013-04-11 00:15:00,
2013-04-10 17:20:00,66.2,23.9,29.85,WNW,302,1.0,0.0,20,0.00,,,0.00,32,WeatherTracker,2013-04-11 00:20:00,
2013-04-10 17:25:00,66.0,23.8,29.85,WNW,294,2.0,0.0,20,0.00,,,0.00,44,WeatherTracker,2013-04-11 00:25:00,
2013-04-10 17:30:00,65.7,24.7,29.85,NW,305,2.0,0.0,21,0.00,,,0.00,51,WeatherTracker,2013-04-11 00:30:00,
2013-04-10 17:35:00,65.5,24.5,29.85,NW,308,0.0,0.0,21,0.00,,,0.00,28,WeatherTracker,2013-04-11 00:35:00,
2013-04-10 17:45:00,65.3,24.4,29.85,WNW,292,4.0,0.0,21,0.00,,,0.00,26,WeatherTracker,2013-04-11 00:45:00,
2013-04-10 17:50:00,65.1,24.2,29.86,West,281,4.0,0.0,21,0.00,,,0.00,25,WeatherTracker,2013-04-11 00:50:00,
2013-04-10 17:55:00,64.9,25.1,29.86,WNW,300,2.0,0.0,22,0.00,,,0.00,23,WeatherTracker,2013-04-11 00:55:00,
2013-04-10 18:00:00,64.8,25.1,29.86,NW,306,1.0,0.0,22,0.00,,,0.00,23,WeatherTracker,2013-04-11 01:00:00,
2013-04-10 18:10:00,64.5,25.9,29.86,WNW,301,0.0,0.0,23,0.00,,,0.00,19,WeatherTracker,2013-04-11 01:10:00,
2013-04-10 18:20:00,64.1,26.6,29.86,NW,319,5.0,0.0,24,0.00,,,0.00,14,WeatherTracker,2013-04-11 01:20:00,
2013-04-10 18:30:00,63.8,27.3,29.87,WNW,303,4.0,0.0,25,0.00,,,0.00,11,WeatherTracker,2013-04-11 01:30:00,
2013-04-10 18:40:00,63.4,27.9,29.87,West,269,0.0,0.0,26,0.00,,,0.00,5,WeatherTracker,2013-04-11 01:40:00,
2013-04-10 18:45:00,63.2,27.7,29.87,WNW,286,2.0,0.0,26,0.00,,,0.00,0,WeatherTracker,2013-04-11 01:45:00,
2013-04-10 18:50:00,63.0,28.5,29.87,WNW,302,1.0,0.0,27,0.00,,,0.00,0,WeatherTracker,2013-04-11 01:50:00,
2013-04-10 19:00:00,62.7,28.2,29.88,NW,305,4.0,0.0,27,0.00,,,0.00,0,WeatherTracker,2013-04-11 02:00:00,
2013-04-10 19:05:00,62.5,28.1,29.88,NNW,331,0.0,0.0,27,0.00,,,0.00,0,WeatherTracker,2013-04-11 02:05:00,
2013-04-10 19:15:00,62.2,29.6,29.89,NW,306,1.0,0.0,29,0.00,,,0.00,0,WeatherTracker,2013-04-11 02:15:00,
2013-04-10 19:25:00,61.9,30.1,29.89,WNW,284,0.0,0.0,30,0.00,,,0.00,0,WeatherTracker,2013-04-11 02:25:00,
2013-04-10 19:30:00,61.8,30.0,29.89,WNW,284,0.0,0.0,30,0.00,,,0.00,0,WeatherTracker,2013-04-11 02:30:00,
2013-04-10 19:40:00,61.6,30.7,29.90,WNW,284,0.0,0.0,31,0.00,,,0.00,0,WeatherTracker,2013-04-11 02:40:00,
2013-04-10 19:45:00,61.4,30.5,29.90,WNW,284,0.0,0.0,31,0.00,,,0.00,0,WeatherTracker,2013-04-11 02:45:00,
2013-04-10 19:55:00,60.9,30.8,29.90,WNW,284,0.0,0.0,32,0.00,,,0.00,0,WeatherTracker,2013-04-11 02:55:00,
2013-04-10 20:00:00,60.7,30.7,29.90,WNW,284,0.0,0.0,32,0.00,,,0.00,0,WeatherTracker,2013-04-11 03:00:00,
2013-04-10 20:05:00,60.4,31.2,29.90,WNW,284,0.0,0.0,33,0.00,,,0.00,0,WeatherTracker,2013-04-11 03:05:00,
2013-04-10 20:10:00,60.2,31.0,29.91,WNW,284,0.0,0.0,33,0.00,,,0.00,0,WeatherTracker,2013-04-11 03:10:00,
2013-04-10 20:15:00,59.9,32.2,29.91,WNW,284,0.0,0.0,35,0.00,,,0.00,0,WeatherTracker,2013-04-11 03:15:00,
2013-04-10 20:25:00,59.2,30.8,29.91,WNW,284,0.0,0.0,34,0.00,,,0.00,0,WeatherTracker,2013-04-11 03:25:00,
2013-04-10 20:30:00,58.9,31.3,29.91,WNW,284,0.0,0.0,35,0.00,,,0.00,0,WeatherTracker,2013-04-11 03:30:00,
2013-04-10 20:35:00,58.6,31.0,29.92,WNW,284,0.0,0.0,35,0.00,,,0.00,0,WeatherTracker,2013-04-11 03:35:00,
2013-04-10 20:45:00,58.3,31.5,29.92,WNW,284,0.0,0.0,36,0.00,,,0.00,0,WeatherTracker,2013-04-11 03:45:00,
2013-04-10 20:50:00,58.2,32.1,29.92,WNW,284,0.0,0.0,37,0.00,,,0.00,0,WeatherTracker,2013-04-11 03:50:00,
2013-04-10 20:55:00,58.0,31.9,29.92,WNW,284,0.0,0.0,37,0.00,,,0.00,0,WeatherTracker,2013-04-11 03:55:00,
2013-04-10 21:00:00,57.8,31.7,29.93,WNW,284,0.0,0.0,37,0.00,,,0.00,0,WeatherTracker,2013-04-11 04:00:00,
2013-04-10 21:05:00,57.7,32.3,29.93,WNW,284,0.0,0.0,38,0.00,,,0.00,0,WeatherTracker,2013-04-11 04:05:00,
2013-04-10 21:10:00,57.5,32.1,29.93,WNW,284,0.0,0.0,38,0.00,,,0.00,0,WeatherTracker,2013-04-11 04:10:00,
2013-04-10 21:15:00,57.3,31.9,29.93,WNW,284,0.0,0.0,38,0.00,,,0.00,0,WeatherTracker,2013-04-11 04:15:00,
2013-04-10 21:25:00,57.0,32.9,29.93,WNW,284,0.0,0.0,40,0.00,,,0.00,0,WeatherTracker,2013-04-11 04:25:00,
2013-04-10 21:30:00,56.8,32.7,29.93,WNW,284,0.0,0.0,40,0.00,,,0.00,0,WeatherTracker,2013-04-11 04:30:00,
2013-04-10 21:35:00,56.6,32.6,29.93,WNW,284,0.0,0.0,40,0.00,,,0.00,0,WeatherTracker,2013-04-11 04:35:00,
2013-04-10 21:45:00,56.2,32.8,29.93,WNW,284,0.0,0.0,41,0.00,,,0.00,0,WeatherTracker,2013-04-11 04:45:00,
2013-04-10 21:50:00,56.0,33.2,29.93,WNW,284,0.0,0.0,42,0.00,,,0.00,0,WeatherTracker,2013-04-11 04:50:00,
2013-04-10 21:55:00,55.8,33.1,29.93,WNW,284,0.0,0.0,42,0.00,,,0.00,0,WeatherTracker,2013-04-11 04:55:00,
2013-04-10 22:05:00,55.5,32.8,29.93,WNW,284,0.0,0.0,42,0.00,,,0.00,0,WeatherTracker,2013-04-11 05:05:00,
2013-04-10 22:10:00,55.3,33.2,29.93,WNW,284,0.0,0.0,43,0.00,,,0.00,0,WeatherTracker,2013-04-11 05:10:00,
2013-04-10 22:15:00,55.1,33.0,29.93,WNW,284,0.0,0.0,43,0.00,,,0.00,0,WeatherTracker,2013-04-11 05:15:00,
2013-04-10 22:25:00,54.8,32.2,29.93,WNW,284,0.0,0.0,42,0.00,,,0.00,0,WeatherTracker,2013-04-11 05:25:00,
2013-04-10 22:35:00,54.3,32.9,29.93,WNW,284,0.0,0.0,44,0.00,,,0.00,0,WeatherTracker,2013-04-11 05:35:00,
2013-04-10 22:45:00,53.9,32.5,29.93,WNW,284,0.0,0.0,44,0.00,,,0.00,0,WeatherTracker,2013-04-11 05:45:00,
2013-04-10 22:55:00,53.6,32.8,29.93,WNW,284,0.0,0.0,45,0.00,,,0.00,0,WeatherTracker,2013-04-11 05:55:00,
2013-04-10 23:00:00,53.4,32.6,29.93,WNW,284,0.0,0.0,45,0.00,,,0.00,0,WeatherTracker,2013-04-11 06:00:00,
2013-04-10 23:05:00,53.2,32.4,29.93,WNW,284,0.0,0.0,45,0.00,,,0.00,0,WeatherTracker,2013-04-11 06:05:00,
2013-04-10 23:15:00,53.0,31.1,29.93,WNW,284,0.0,0.0,43,0.00,,,0.00,0,WeatherTracker,2013-04-11 06:15:00,
2013-04-10 23:20:00,53.0,30.5,29.93,WNW,284,0.0,0.0,42,0.00,,,0.00,0,WeatherTracker,2013-04-11 06:20:00,
2013-04-10 23:30:00,53.2,31.3,29.94,WNW,284,0.0,0.0,43,0.00,,,0.00,0,WeatherTracker,2013-04-11 06:30:00,
2013-04-10 23:40:00,53.3,30.8,29.94,WNW,284,0.0,0.0,42,0.00,,,0.00,0,WeatherTracker,2013-04-11 06:40:00,
2013-04-10 23:45:00,53.3,31.4,29.94,WNW,284,0.0,0.0,43,0.00,,,0.00,0,WeatherTracker,2013-04-11 06:45:00,
2013-04-10 23:50:00,53.3,31.9,29.94,WNW,284,0.0,0.0,44,0.00,,,0.00,0,WeatherTracker,2013-04-11 06:50:00,
2013-04-10 23:55:00,53.3,31.9,29.94,WNW,284,0.0,0.0,44,0.00,,,0.00,0,WeatherTracker,2013-04-11 06:55:00,